< < Back
Terminal Aerodrome Forecast


Current Version              Previous Versions:   1  2  3  4  5  6  7  8  9  

Terminal Aerodrome Forecast

388
FTUS42 KCHS 301400 AAA
TAFCHS
TAF AMD
KCHS 301456Z 3015/3112 09007KT P6SM VCSH SCT030 BKN090
     FM301800 12008KT P6SM VCSH SCT035 SCT050 BKN100
     FM310100 06003KT P6SM SCT030 SCT100=



Latest METAR

291
SAUS80 KWBC 301900 CCB
MTRCHS
METAR KCHS 301856Z 09014G21KT 10SM SCT040 BKN080 BKN250 31/19 A3000 RMK
AO2 SLP158 T03110189


USA.gov is the U.S. government's official web portal to all federal, state and local government web resources and services.